createdAt,value
2024-03-03T00:04:16.162Z,7.89
2024-03-03T00:09:21.527Z,7.84
2024-03-03T00:14:27.261Z,7.81
2024-03-03T00:19:30.329Z,7.85
2024-03-03T00:24:33.586Z,7.84
2024-03-03T00:29:38.281Z,7.80
2024-03-03T00:34:44.822Z,7.76
2024-03-03T00:39:49.054Z,7.86
2024-03-03T00:44:54.314Z,7.90
2024-03-03T00:49:57.699Z,7.87
2024-03-03T00:55:00.744Z,7.90
2024-03-03T01:00:06.997Z,7.90
2024-03-03T01:05:11.930Z,7.83
2024-03-03T01:10:17.220Z,7.75
2024-03-03T01:15:21.712Z,7.67
2024-03-03T01:20:24.700Z,7.64
2024-03-03T01:25:31.093Z,7.58
2024-03-03T01:30:37.137Z,7.60
2024-03-03T01:35:40.144Z,7.62
2024-03-03T01:40:44.002Z,7.58
2024-03-03T01:45:48.397Z,7.54
2024-03-03T01:50:53.874Z,7.52
2024-03-03T01:55:57.028Z,7.50
2024-03-03T02:01:03.897Z,7.48
2024-03-03T02:06:07.464Z,7.49
2024-03-03T02:11:12.041Z,7.49
2024-03-03T02:16:17.536Z,7.53
2024-03-03T02:21:24.868Z,7.56
2024-03-03T02:26:28.167Z,7.58
2024-03-03T02:31:34.402Z,7.57
2024-03-03T02:36:41.197Z,7.54
2024-03-03T02:41:44.341Z,7.53
2024-03-03T02:46:49.583Z,7.47
2024-03-03T02:51:57.143Z,7.40
2024-03-03T02:57:02.634Z,7.28
2024-03-03T03:02:06.245Z,7.20
2024-03-03T03:07:10.859Z,7.07
2024-03-03T03:12:13.915Z,6.91
2024-03-03T03:17:17.047Z,6.78
2024-03-03T03:22:22.546Z,6.76
2024-03-03T03:27:25.619Z,6.63
2024-03-03T03:32:28.626Z,6.47
2024-03-03T03:37:33.414Z,6.44
2024-03-03T03:42:36.372Z,6.44
2024-03-03T03:47:39.290Z,6.42
2024-03-03T03:52:43.924Z,6.42
2024-03-03T03:57:47.114Z,6.44
2024-03-03T04:02:50.285Z,6.49
2024-03-03T04:07:54.635Z,6.53
2024-03-03T04:12:57.986Z,6.59
2024-03-03T04:18:01.019Z,6.62
2024-03-03T04:23:05.554Z,6.61
2024-03-03T04:28:12.264Z,6.66
2024-03-03T04:33:15.292Z,6.60
2024-03-03T04:38:19.832Z,6.55
2024-03-03T04:43:22.965Z,6.45
2024-03-03T04:48:28.222Z,6.46
2024-03-03T04:53:34.460Z,6.45
2024-03-03T04:58:37.361Z,6.44
2024-03-03T05:03:40.921Z,6.43
2024-03-03T05:08:46.238Z,6.43
2024-03-03T05:13:49.210Z,6.44
2024-03-03T05:18:52.173Z,6.41
2024-03-03T05:23:56.491Z,6.43
2024-03-03T05:29:00.383Z,6.39
2024-03-03T05:34:05.037Z,6.38
2024-03-03T05:39:09.836Z,6.35
2024-03-03T05:44:12.671Z,6.33
2024-03-03T05:49:17.258Z,6.32
2024-03-03T05:54:22.117Z,6.29
2024-03-03T05:59:26.281Z,6.27
2024-03-03T06:04:29.644Z,6.11
2024-03-03T06:09:35.872Z,6.07
2024-03-03T06:14:38.839Z,5.99
2024-03-03T06:19:43.273Z,5.92
2024-03-03T06:24:47.567Z,5.95
2024-03-03T06:29:50.502Z,5.98
2024-03-03T06:34:53.410Z,6.04
2024-03-03T06:39:59.583Z,6.11
2024-03-03T06:45:02.687Z,6.16
2024-03-03T06:50:07.218Z,6.18
2024-03-03T06:55:12.130Z,6.26
2024-03-03T07:00:15.997Z,6.30
2024-03-03T07:05:19.386Z,6.40
2024-03-03T07:10:23.780Z,6.52
2024-03-03T07:15:27.118Z,6.73
2024-03-03T07:20:30.022Z,6.94
2024-03-03T07:25:34.189Z,7.14
2024-03-03T07:30:37.659Z,7.44
2024-03-03T07:35:40.831Z,7.57
2024-03-03T07:40:45.884Z,7.67
2024-03-03T07:45:48.948Z,7.99
2024-03-03T07:50:52.140Z,8.21
2024-03-03T07:55:56.386Z,8.42
2024-03-03T08:01:01.063Z,8.44
2024-03-03T08:06:04.249Z,8.68
2024-03-03T08:11:08.629Z,8.84
2024-03-03T08:16:12.742Z,8.82
2024-03-03T08:21:15.751Z,8.86
2024-03-03T08:26:20.494Z,9.05
2024-03-03T08:31:24.362Z,9.06
2024-03-03T08:36:27.298Z,9.50
2024-03-03T08:41:33.032Z,9.91
2024-03-03T08:46:36.018Z,9.99
2024-03-03T08:51:40.675Z,10.07
2024-03-03T08:56:45.253Z,10.36
2024-03-03T09:01:48.274Z,10.57
2024-03-03T09:06:51.720Z,10.57
2024-03-03T09:11:56.140Z,10.90
2024-03-03T09:16:58.992Z,10.76
2024-03-03T09:22:02.110Z,10.93
2024-03-03T09:27:06.963Z,11.15
2024-03-03T09:32:09.958Z,11.29
2024-03-03T09:37:14.240Z,11.27
2024-03-03T09:42:19.110Z,11.72
2024-03-03T09:47:24.104Z,11.84
2024-03-03T09:52:31.885Z,11.58
2024-03-03T09:57:37.996Z,11.97
2024-03-03T10:02:44.131Z,11.83
2024-03-03T10:07:53.584Z,12.29
2024-03-03T10:13:00.894Z,12.20
2024-03-03T10:18:04.319Z,12.59
2024-03-03T10:23:07.918Z,12.61
2024-03-03T10:28:15.917Z,13.08
2024-03-03T10:33:21.802Z,13.18
2024-03-03T10:38:31.245Z,13.54
2024-03-03T10:43:35.477Z,13.53
2024-03-03T10:48:39.414Z,13.53
2024-03-03T10:53:42.561Z,13.85
2024-03-03T10:58:47.556Z,14.03
2024-03-03T11:03:54.182Z,14.59
2024-03-03T11:08:59.901Z,14.79
2024-03-03T11:14:12.665Z,14.92
2024-03-03T11:19:21.548Z,15.17
2024-03-03T11:24:31.639Z,14.92
2024-03-03T11:29:37.167Z,14.96
2024-03-03T11:34:41.506Z,15.05
2024-03-03T11:39:59.637Z,15.22
2024-03-03T11:45:05.378Z,15.59
2024-03-03T11:50:22.343Z,16.32
2024-03-03T11:55:27.701Z,16.39
2024-03-03T12:00:33.446Z,16.07
2024-03-03T12:05:37.629Z,17.06
2024-03-03T12:10:43.474Z,16.74
2024-03-03T12:15:48.523Z,16.93
2024-03-03T12:20:51.805Z,17.25
2024-03-03T12:25:54.806Z,17.69
2024-03-03T12:31:00.163Z,18.01
2024-03-03T12:36:04.924Z,18.60
2024-03-03T12:41:08.155Z,19.41
2024-03-03T12:46:13.266Z,19.48
2024-03-03T12:51:17.145Z,19.41
2024-03-03T12:56:22.858Z,20.20
2024-03-03T13:01:27.304Z,20.39
2024-03-03T13:06:32.261Z,19.44
2024-03-03T13:11:35.332Z,19.78
2024-03-03T13:16:39.895Z,18.76
2024-03-03T13:21:44.879Z,18.45
2024-03-03T13:26:48.703Z,18.10
2024-03-03T13:31:53.651Z,17.54
2024-03-03T13:36:56.951Z,17.31
2024-03-03T13:41:59.901Z,17.03
2024-03-03T13:47:06.746Z,16.91
2024-03-03T13:52:13.182Z,16.92
2024-03-03T13:57:17.773Z,16.54
2024-03-03T14:02:23.690Z,16.80
2024-03-03T14:07:27.885Z,16.68
2024-03-03T14:12:31.291Z,16.41
2024-03-03T14:17:37.095Z,16.42
2024-03-03T14:22:41.594Z,16.66
2024-03-03T14:27:44.654Z,16.49
2024-03-03T14:32:49.157Z,16.34
2024-03-03T14:37:53.344Z,16.50
2024-03-03T14:42:56.678Z,16.62
2024-03-03T14:48:01.249Z,16.70
2024-03-03T14:53:04.478Z,16.67
2024-03-03T14:58:09.362Z,16.66
2024-03-03T15:03:14.196Z,16.72
2024-03-03T15:08:17.427Z,16.70
2024-03-03T15:13:21.080Z,16.66
2024-03-03T15:18:26.303Z,16.36
2024-03-03T15:23:29.368Z,16.42
2024-03-03T15:28:33.139Z,16.28
2024-03-03T15:33:37.739Z,16.39
2024-03-03T15:38:41.573Z,16.40
2024-03-03T15:43:47.159Z,16.08
2024-03-03T15:48:51.456Z,16.21
2024-03-03T15:53:54.282Z,15.78
2024-03-03T15:58:58.539Z,15.90
2024-03-03T16:04:03.136Z,15.62
2024-03-03T16:09:07.828Z,15.60
2024-03-03T16:14:11.427Z,15.60
2024-03-03T16:19:15.792Z,15.51
2024-03-03T16:24:19.226Z,15.47
2024-03-03T16:29:22.566Z,15.37
2024-03-03T16:34:28.726Z,15.15
2024-03-03T16:39:32.947Z,14.90
2024-03-03T16:44:36.053Z,14.78
2024-03-03T16:49:40.376Z,14.60
2024-03-03T16:54:44.322Z,14.46
2024-03-03T16:59:47.402Z,14.25
2024-03-03T17:04:51.920Z,14.03
2024-03-03T17:09:55.431Z,13.79
2024-03-03T17:14:58.666Z,13.52
2024-03-03T17:20:05.199Z,13.29
2024-03-03T17:25:08.706Z,13.04
2024-03-03T17:30:13.699Z,12.86
2024-03-03T17:35:17.932Z,12.66
2024-03-03T17:40:21.600Z,12.50
2024-03-03T17:45:26.436Z,12.36
2024-03-03T17:50:30.755Z,12.19
2024-03-03T17:55:33.868Z,12.04
2024-03-03T18:00:37.541Z,11.89
2024-03-03T18:05:42.640Z,11.74
2024-03-03T18:10:45.911Z,11.59
2024-03-03T18:15:49.904Z,11.43
2024-03-03T18:20:54.254Z,11.23
2024-03-03T18:25:58.487Z,11.09
2024-03-03T18:31:02.465Z,10.97
2024-03-03T18:36:07.956Z,10.86
2024-03-03T18:41:11.141Z,10.66
2024-03-03T18:46:14.926Z,10.54
2024-03-03T18:51:20.642Z,10.29
2024-03-03T18:56:25.343Z,10.01
2024-03-03T19:01:28.351Z,9.68
2024-03-03T19:06:33.677Z,9.50
2024-03-03T19:11:36.727Z,9.27
2024-03-03T19:16:41.618Z,9.22
2024-03-03T19:21:47.093Z,9.24
2024-03-03T19:26:52.060Z,9.17
2024-03-03T19:31:55.358Z,9.05
2024-03-03T19:37:00.213Z,8.97
2024-03-03T19:42:04.043Z,8.89
2024-03-03T19:47:07.952Z,8.76
2024-03-03T19:52:15.396Z,8.60
2024-03-03T19:57:18.555Z,8.57
2024-03-03T20:02:22.192Z,8.41
2024-03-03T20:07:27.084Z,8.22
2024-03-03T20:12:30.381Z,8.05
2024-03-03T20:17:33.723Z,8.04
2024-03-03T20:22:38.306Z,7.84
2024-03-03T20:27:41.391Z,7.93
2024-03-03T20:32:44.832Z,7.91
2024-03-03T20:37:49.382Z,7.74
2024-03-03T20:42:53.603Z,7.54
2024-03-03T20:47:56.968Z,7.54
2024-03-03T20:53:01.632Z,7.61
2024-03-03T20:58:05.544Z,7.52
2024-03-03T21:03:08.765Z,7.45
2024-03-03T21:08:14.023Z,7.56
2024-03-03T21:13:17.093Z,7.63
2024-03-03T21:18:21.116Z,8.04
2024-03-03T21:23:28.239Z,8.35
2024-03-03T21:28:31.432Z,8.64
2024-03-03T21:33:34.375Z,8.69
2024-03-03T21:38:38.878Z,8.77
2024-03-03T21:43:41.832Z,8.83
2024-03-03T21:48:44.693Z,9.01
2024-03-03T21:53:51.146Z,9.01
2024-03-03T21:58:56.729Z,9.04
2024-03-03T22:03:59.886Z,9.06
2024-03-03T22:09:05.657Z,9.08
2024-03-03T22:14:08.821Z,9.07
2024-03-03T22:19:11.837Z,9.06
2024-03-03T22:24:16.419Z,9.02
2024-03-03T22:29:20.165Z,8.98
2024-03-03T22:34:23.212Z,8.93
2024-03-03T22:39:29.218Z,8.85
2024-03-03T22:44:32.285Z,8.79
2024-03-03T22:49:35.241Z,8.74
2024-03-03T22:54:39.682Z,8.67
2024-03-03T22:59:43.651Z,8.60
2024-03-03T23:04:49.314Z,8.49
2024-03-03T23:09:56.059Z,8.47
2024-03-03T23:14:59.751Z,8.44
2024-03-03T23:20:02.817Z,8.38
2024-03-03T23:25:08.578Z,8.40
2024-03-03T23:30:13.537Z,8.41
2024-03-03T23:35:16.618Z,8.41
2024-03-03T23:40:22.313Z,8.45
2024-03-03T23:45:26.001Z,8.47
2024-03-03T23:50:29.138Z,8.50
2024-03-03T23:55:34.011Z,8.55
